Time;durP1;ratioP1;P1;durP2;ratioP2;P2;SDS_P1;SDS_P2;PMS_P1;PMS_P2;Temp;Humidity;BMP_temperature;BMP_pressure;BME280_temperature;BME280_humidity;BME280_pressure;Samples;Min_cycle;Max_cycle;Signal;HPM_P1;HPM_P2
2022/10/22 00:01:15;;;;;;;9.75;5.97;;;;;;;;;;5094955;27;20545;-61
2022/10/22 00:03:41;;;;;;;6.85;4.78;;;;;;;;;;5093863;27;20580;-61
2022/10/22 00:06:08;;;;;;;8.18;4.20;;;;;;;;;;5102842;27;20517;-61
2022/10/22 00:08:34;;;;;;;7.50;4.70;;;;;;;;;;5104483;27;20048;-61
2022/10/22 00:11:10;;;;;;;14.02;4.88;;;;;;;;;;5104788;27;20040;-60
2022/10/22 00:13:37;;;;;;;13.70;5.85;;;;;;;;;;5097114;27;20538;-62
2022/10/22 00:16:03;;;;;;;8.73;4.72;;;;;;;;;;5102822;27;20052;-61
2022/10/22 00:18:30;;;;;;;9.20;4.57;;;;;;;;;;5103851;27;20506;-61
2022/10/22 00:20:56;;;;;;;10.57;4.53;;;;;;;;;;5104080;27;20063;-61
2022/10/22 00:23:22;;;;;;;10.18;5.93;;;;;;;;;;5091152;27;20090;-60
2022/10/22 00:25:48;;;;;;;9.23;5.50;;;;;;;;;;5094620;27;20142;-62
2022/10/22 00:28:15;;;;;;;8.35;5.13;;;;;;;;;;5098646;27;20098;-62
2022/10/22 00:30:41;;;;;;;12.25;6.35;;;;;;;;;;5104933;27;20097;-61
2022/10/22 00:33:08;;;;;;;11.00;5.30;;;;;;;;;;5099431;27;20052;-62
2022/10/22 00:35:34;;;;;;;12.35;4.70;;;;;;;;;;5105341;27;20055;-62
2022/10/22 00:38:00;;;;;;;7.60;4.90;;;;;;;;;;5101180;27;20510;-61
2022/10/22 00:40:27;;;;;;;13.38;5.60;;;;;;;;;;5098100;27;20606;-63
2022/10/22 00:42:53;;;;;;;10.68;5.20;;;;;;;;;;5095850;27;20048;-62
2022/10/22 00:45:23;;;;;;;11.88;5.47;;;;;;;;;;5100568;27;20051;-63
2022/10/22 00:47:50;;;;;;;11.43;5.38;;;;;;;;;;5104990;27;20056;-63
2022/10/22 00:50:22;;;;;;;8.70;5.22;;;;;;;;;;5103983;27;20044;-62
2022/10/22 00:52:48;;;;;;;12.10;5.32;;;;;;;;;;5102959;27;20100;-61
2022/10/22 00:55:16;;;;;;;9.60;5.18;;;;;;;;;;5102704;27;22182;-61
2022/10/22 00:57:42;;;;;;;7.80;5.13;;;;;;;;;;5100628;27;20555;-61
2022/10/22 01:00:09;;;;;;;11.15;5.70;;;;;;;;;;5095482;27;20486;-62
2022/10/22 01:02:35;;;;;;;13.48;6.88;;;;;;;;;;5094719;27;20074;-61
2022/10/22 01:05:02;;;;;;;12.93;6.63;;;;;;;;;;5087643;27;20172;-61
2022/10/22 01:07:29;;;;;;;12.30;6.28;;;;;;;;;;5089554;27;20064;-61
2022/10/22 01:09:58;;;;;;;12.82;6.43;;;;;;;;;;5104901;27;20518;-61
2022/10/22 01:12:37;;;;;;;9.73;6.30;;;;;;;;;;5091180;27;20069;-60
2022/10/22 01:15:10;;;;;;;11.15;6.60;;;;;;;;;;5100171;27;20544;-62
2022/10/22 01:17:45;;;;;;;14.55;6.95;;;;;;;;;;5101824;27;20048;-60
2022/10/22 01:20:12;;;;;;;;;;;;;;;;;;5102314;27;20103;-61
2022/10/22 01:22:44;;;;;;;11.35;6.07;;;;;;;;;;5102173;27;46871;-60
2022/10/22 01:25:15;;;;;;;9.68;6.03;;;;;;;;;;5103510;27;20048;-60
2022/10/22 01:27:45;;;;;;;16.58;6.03;;;;;;;;;;5103241;27;20036;-60
2022/10/22 01:30:12;;;;;;;10.57;5.55;;;;;;;;;;5103130;27;20418;-61
2022/10/22 01:32:45;;;;;;;13.05;5.65;;;;;;;;;;5093089;27;20048;-60
2022/10/22 01:35:14;;;;;;;11.02;5.50;;;;;;;;;;5101984;27;20059;-62
2022/10/22 01:37:44;;;;;;;10.30;5.78;;;;;;;;;;5088082;27;20541;-61
2022/10/22 01:40:13;;;;;;;12.07;5.20;;;;;;;;;;5100873;27;20896;-61
2022/10/22 01:42:40;;;;;;;11.52;5.50;;;;;;;;;;5093163;27;20048;-63
2022/10/22 01:45:10;;;;;;;13.88;5.72;;;;;;;;;;5093989;27;20522;-63
2022/10/22 01:47:48;;;;;;;8.55;5.18;;;;;;;;;;5110252;27;20052;-61
2022/10/22 01:50:27;;;;;;;10.93;5.65;;;;;;;;;;5100482;27;20048;-62
2022/10/22 01:53:05;;;;;;;10.00;5.40;;;;;;;;;;5090181;27;20051;-60
2022/10/22 01:55:32;;;;;;;10.13;5.20;;;;;;;;;;5096211;27;20478;-62
2022/10/22 01:58:01;;;;;;;9.63;5.38;;;;;;;;;;5092038;27;20048;-60
2022/10/22 02:00:27;;;;;;;16.73;5.32;;;;;;;;;;5098476;27;20540;-63
2022/10/22 02:02:57;;;;;;;9.05;5.75;;;;;;;;;;5088339;27;20110;-61
2022/10/22 02:05:30;;;;;;;12.07;5.75;;;;;;;;;;5094643;27;20539;-61
2022/10/22 02:08:10;;;;;;;9.48;5.40;;;;;;;;;;5089062;27;20544;-63
2022/10/22 02:10:38;;;;;;;11.90;6.07;;;;;;;;;;5096056;28;20542;-60
2022/10/22 02:13:07;;;;;;;8.57;5.30;;;;;;;;;;5099600;27;20051;-60
2022/10/22 02:15:35;;;;;;;8.07;5.25;;;;;;;;;;5102008;27;20063;-60
2022/10/22 02:18:03;;;;;;;12.52;6.13;;;;;;;;;;5089101;27;20048;-60
2022/10/22 02:20:34;;;;;;;9.68;5.07;;;;;;;;;;5110538;27;20508;-60
2022/10/22 02:23:02;;;;;;;10.00;5.25;;;;;;;;;;5099628;27;20067;-62
2022/10/22 02:25:31;;;;;;;13.27;5.55;;;;;;;;;;5102352;27;20526;-61
2022/10/22 02:28:00;;;;;;;20.83;6.93;;;;;;;;;;5101971;27;20238;-62
2022/10/22 02:30:27;;;;;;;8.25;5.38;;;;;;;;;;5103769;27;20151;-63
2022/10/22 02:32:59;;;;;;;17.85;6.70;;;;;;;;;;5098505;27;20063;-61
2022/10/22 02:35:26;;;;;;;10.68;6.25;;;;;;;;;;5094694;27;20052;-60
2022/10/22 02:37:54;;;;;;;13.98;5.47;;;;;;;;;;5102381;27;20059;-60
2022/10/22 02:40:20;;;;;;;19.30;6.07;;;;;;;;;;5100939;27;20052;-61
2022/10/22 02:42:48;;;;;;;12.10;5.07;;;;;;;;;;5102436;27;20079;-60
2022/10/22 02:45:15;;;;;;;9.23;5.22;;;;;;;;;;5100494;27;20052;-61
2022/10/22 02:47:41;;;;;;;8.25;5.63;;;;;;;;;;5100925;27;20450;-61
2022/10/22 02:50:08;;;;;;;13.75;5.80;;;;;;;;;;5102875;27;20098;-61
2022/10/22 02:52:36;;;;;;;10.77;4.90;;;;;;;;;;5087465;27;20139;-62
2022/10/22 02:55:03;;;;;;;7.80;5.93;;;;;;;;;;5100334;27;20052;-62
2022/10/22 02:57:30;;;;;;;15.23;5.43;;;;;;;;;;5098582;27;20048;-61
2022/10/22 02:59:56;;;;;;;8.68;4.93;;;;;;;;;;5096318;27;20056;-61
2022/10/22 03:02:22;;;;;;;14.13;5.65;;;;;;;;;;5088745;27;20049;-61
2022/10/22 03:04:48;;;;;;;9.90;5.75;;;;;;;;;;5102963;27;20051;-60
2022/10/22 03:07:15;;;;;;;12.95;6.15;;;;;;;;;;5096149;27;20058;-61
2022/10/22 03:09:41;;;;;;;10.32;6.55;;;;;;;;;;5101814;27;20074;-61
2022/10/22 03:12:08;;;;;;;7.38;5.07;;;;;;;;;;5089179;27;20065;-61
2022/10/22 03:14:34;;;;;;;12.02;5.75;;;;;;;;;;5084686;28;20056;-60
2022/10/22 03:17:01;;;;;;;13.77;4.93;;;;;;;;;;5100396;27;20059;-60
2022/10/22 03:19:27;;;;;;;9.90;6.53;;;;;;;;;;5101663;27;20059;-63
2022/10/22 03:22:13;;;;;;;13.70;5.18;;;;;;;;;;5091698;27;20449;-60
2022/10/22 03:24:41;;;;;;;9.43;5.10;;;;;;;;;;5083774;27;20059;-62
2022/10/22 03:27:08;;;;;;;10.23;6.18;;;;;;;;;;5102088;27;20059;-60
2022/10/22 03:29:36;;;;;;;9.95;5.47;;;;;;;;;;5096552;27;20049;-60
2022/10/22 03:32:02;;;;;;;14.30;5.70;;;;;;;;;;5100199;27;20859;-61
2022/10/22 03:34:28;;;;;;;11.43;4.97;;;;;;;;;;5102522;27;20052;-60
2022/10/22 03:36:56;;;;;;;6.38;5.18;;;;;;;;;;5100060;27;20048;-60
2022/10/22 03:39:22;;;;;;;16.10;5.10;;;;;;;;;;5099324;27;20056;-60
2022/10/22 03:41:50;;;;;;;11.70;5.03;;;;;;;;;;5101012;27;20065;-60
2022/10/22 03:44:17;;;;;;;11.13;5.22;;;;;;;;;;5101827;27;20530;-60
2022/10/22 03:46:43;;;;;;;10.27;5.95;;;;;;;;;;5101593;27;20591;-60
2022/10/22 03:49:09;;;;;;;12.40;5.63;;;;;;;;;;5102464;27;20589;-62
2022/10/22 03:51:36;;;;;;;11.70;5.50;;;;;;;;;;5091969;27;20095;-60
2022/10/22 03:54:02;;;;;;;7.60;4.70;;;;;;;;;;5116354;27;20268;-60
2022/10/22 03:56:29;;;;;;;15.93;5.57;;;;;;;;;;5101926;27;20052;-59
2022/10/22 03:58:56;;;;;;;15.13;4.90;;;;;;;;;;5102722;27;20055;-62
2022/10/22 04:01:23;;;;;;;13.32;5.38;;;;;;;;;;5095272;27;20052;-60
2022/10/22 04:03:50;;;;;;;11.52;4.75;;;;;;;;;;5100221;27;20498;-60
2022/10/22 04:06:16;;;;;;;9.50;5.18;;;;;;;;;;5096127;27;20060;-61
2022/10/22 04:08:43;;;;;;;11.27;4.70;;;;;;;;;;5098867;27;20052;-60
2022/10/22 04:11:10;;;;;;;7.78;4.70;;;;;;;;;;5100989;27;20052;-61
2022/10/22 04:13:36;;;;;;;8.63;4.45;;;;;;;;;;5102188;27;20052;-60
2022/10/22 04:16:07;;;;;;;10.82;4.57;;;;;;;;;;5094695;27;20082;-61
2022/10/22 04:18:33;;;;;;;15.20;5.95;;;;;;;;;;5101724;27;20617;-60
2022/10/22 04:21:00;;;;;;;10.23;5.30;;;;;;;;;;5091845;27;20534;-59
2022/10/22 04:23:26;;;;;;;11.50;4.78;;;;;;;;;;5092099;27;20051;-60
2022/10/22 04:26:00;;;;;;;7.88;5.10;;;;;;;;;;5098537;27;20501;-59
2022/10/22 04:28:26;;;;;;;12.38;5.18;;;;;;;;;;5101136;27;20105;-61
2022/10/22 04:30:53;;;;;;;9.65;4.55;;;;;;;;;;5102117;27;20055;-59
2022/10/22 04:33:19;;;;;;;7.63;4.40;;;;;;;;;;5100814;27;20052;-60
2022/10/22 04:35:45;;;;;;;9.10;4.72;;;;;;;;;;5097726;27;20048;-61
2022/10/22 04:38:11;;;;;;;8.43;4.63;;;;;;;;;;5099251;27;20060;-59
2022/10/22 04:40:38;;;;;;;6.43;4.18;;;;;;;;;;5098564;27;20537;-59
2022/10/22 04:43:04;;;;;;;8.25;4.90;;;;;;;;;;5102087;27;20497;-60
2022/10/22 04:45:34;;;;;;;12.15;5.38;;;;;;;;;;5099484;27;20048;-60
2022/10/22 04:48:00;;;;;;;10.15;4.90;;;;;;;;;;5084792;28;20052;-61
2022/10/22 04:50:26;;;;;;;6.63;4.40;;;;;;;;;;5097798;27;20051;-60
2022/10/22 04:52:53;;;;;;;6.13;4.00;;;;;;;;;;5101553;27;20055;-59
2022/10/22 04:55:20;;;;;;;13.02;5.13;;;;;;;;;;5103967;27;20067;-61
2022/10/22 04:57:46;;;;;;;15.05;5.57;;;;;;;;;;5087022;27;20048;-61
2022/10/22 05:00:13;;;;;;;10.18;5.28;;;;;;;;;;5104591;27;20585;-60
2022/10/22 05:02:43;;;;;;;9.73;5.18;;;;;;;;;;5101540;27;20052;-60
2022/10/22 05:05:10;;;;;;;5.97;3.88;;;;;;;;;;5099512;27;20091;-60
2022/10/22 05:07:37;;;;;;;17.02;5.30;;;;;;;;;;5096253;27;20158;-59
2022/10/22 05:10:03;;;;;;;11.63;4.38;;;;;;;;;;5101989;27;20051;-61
2022/10/22 05:12:30;;;;;;;9.00;4.90;;;;;;;;;;5102579;27;20048;-60
2022/10/22 05:14:56;;;;;;;8.20;4.60;;;;;;;;;;5093741;27;20059;-60
2022/10/22 05:17:22;;;;;;;9.00;4.68;;;;;;;;;;5097125;27;20045;-61
2022/10/22 05:19:49;;;;;;;14.45;4.88;;;;;;;;;;5099788;27;20457;-59
2022/10/22 05:22:15;;;;;;;8.43;4.70;;;;;;;;;;5104758;27;20056;-61
2022/10/22 05:24:41;;;;;;;11.40;4.63;;;;;;;;;;5103192;27;20055;-61
2022/10/22 05:27:08;;;;;;;8.55;4.40;;;;;;;;;;5093265;27;20129;-59
2022/10/22 05:29:34;;;;;;;11.90;4.93;;;;;;;;;;5096170;27;20040;-60
2022/10/22 05:32:00;;;;;;;12.23;4.63;;;;;;;;;;5095724;27;20048;-60
2022/10/22 05:34:27;;;;;;;9.85;4.72;;;;;;;;;;5102531;27;20048;-62
2022/10/22 05:36:53;;;;;;;12.30;5.82;;;;;;;;;;5104504;27;20498;-61
2022/10/22 05:39:20;;;;;;;12.82;4.57;;;;;;;;;;5095173;27;20123;-60
2022/10/22 05:41:46;;;;;;;10.50;4.07;;;;;;;;;;5102179;27;20510;-59
2022/10/22 05:44:12;;;;;;;7.30;4.28;;;;;;;;;;5103534;27;20063;-61
2022/10/22 05:46:39;;;;;;;12.15;4.47;;;;;;;;;;5092313;28;20090;-60
2022/10/22 05:49:05;;;;;;;10.13;4.28;;;;;;;;;;5086750;27;20056;-60
2022/10/22 05:51:33;;;;;;;8.65;4.45;;;;;;;;;;5101152;27;20795;-60
2022/10/22 05:54:01;;;;;;;8.68;3.97;;;;;;;;;;5091056;27;20086;-60
2022/10/22 05:56:28;;;;;;;11.10;4.47;;;;;;;;;;5104661;27;20048;-62
2022/10/22 05:58:55;;;;;;;7.93;4.60;;;;;;;;;;5100966;27;20131;-60
2022/10/22 06:01:23;;;;;;;8.90;4.43;;;;;;;;;;5101713;27;20496;-59
2022/10/22 06:03:52;;;;;;;8.27;3.85;;;;;;;;;;5102941;27;20048;-60
2022/10/22 06:06:20;;;;;;;13.05;5.20;;;;;;;;;;5100446;27;20056;-60
2022/10/22 06:08:47;;;;;;;17.15;4.60;;;;;;;;;;5099288;27;20045;-59
2022/10/22 06:11:13;;;;;;;13.85;3.95;;;;;;;;;;5101141;27;20161;-62
2022/10/22 06:13:40;;;;;;;5.70;4.18;;;;;;;;;;5101296;27;20051;-59
2022/10/22 06:16:06;;;;;;;15.90;3.90;;;;;;;;;;5094984;27;20112;-61
2022/10/22 06:18:32;;;;;;;8.23;4.28;;;;;;;;;;5103174;27;20521;-62
2022/10/22 06:21:09;;;;;;;8.43;4.32;;;;;;;;;;5101064;27;20554;-59
2022/10/22 06:23:36;;;;;;;10.80;3.90;;;;;;;;;;5102203;27;20044;-59
2022/10/22 06:26:03;;;;;;;13.43;3.88;;;;;;;;;;5103941;27;20516;-60
2022/10/22 06:28:30;;;;;;;14.32;5.55;;;;;;;;;;5098159;27;20083;-61
2022/10/22 06:30:57;;;;;;;14.73;4.30;;;;;;;;;;5087160;28;20051;-60
2022/10/22 06:33:24;;;;;;;10.23;4.13;;;;;;;;;;5102651;27;20452;-60
2022/10/22 06:35:50;;;;;;;9.68;3.88;;;;;;;;;;5103506;27;20067;-60
2022/10/22 06:38:17;;;;;;;15.13;4.68;;;;;;;;;;5102188;27;20145;-59
2022/10/22 06:40:43;;;;;;;11.60;4.20;;;;;;;;;;5100570;27;20511;-59
2022/10/22 06:43:11;;;;;;;13.35;4.40;;;;;;;;;;5101388;27;20146;-60
2022/10/22 06:45:37;;;;;;;14.95;4.38;;;;;;;;;;5114731;27;20052;-60
2022/10/22 06:48:04;;;;;;;16.05;4.95;;;;;;;;;;5098306;27;20532;-60
2022/10/22 06:50:30;;;;;;;10.32;4.32;;;;;;;;;;5090094;27;20452;-60
2022/10/22 06:52:57;;;;;;;20.33;4.50;;;;;;;;;;5104235;27;20048;-62
2022/10/22 06:55:23;;;;;;;12.55;4.45;;;;;;;;;;5094756;27;20547;-61
2022/10/22 06:57:50;;;;;;;8.63;4.18;;;;;;;;;;5099843;28;20056;-61
2022/10/22 07:00:16;;;;;;;7.15;4.00;;;;;;;;;;5097743;27;20130;-60
2022/10/22 07:02:43;;;;;;;12.48;4.15;;;;;;;;;;5087986;27;20056;-60
2022/10/22 07:05:09;;;;;;;11.90;3.90;;;;;;;;;;5096670;27;20059;-60
2022/10/22 07:07:35;;;;;;;17.95;5.03;;;;;;;;;;5101709;27;20465;-60
2022/10/22 07:10:02;;;;;;;10.90;4.57;;;;;;;;;;5103540;27;20117;-61
2022/10/22 07:12:28;;;;;;;13.00;3.75;;;;;;;;;;5103016;27;20052;-60
2022/10/22 07:14:54;;;;;;;11.60;3.60;;;;;;;;;;5100915;27;20524;-62
2022/10/22 07:17:20;;;;;;;10.50;3.90;;;;;;;;;;5101713;27;20044;-60
2022/10/22 07:19:47;;;;;;;8.82;3.67;;;;;;;;;;5096230;27;20052;-60
2022/10/22 07:22:17;;;;;;;13.25;3.83;;;;;;;;;;5103989;27;20176;-59
2022/10/22 07:24:43;;;;;;;10.15;3.78;;;;;;;;;;5101162;27;20524;-60
2022/10/22 07:27:09;;;;;;;12.35;3.97;;;;;;;;;;5095241;27;20680;-59
2022/10/22 07:29:37;;;;;;;12.60;3.75;;;;;;;;;;5098809;27;20097;-60
2022/10/22 07:32:03;;;;;;;12.25;3.92;;;;;;;;;;5104089;27;20316;-61
2022/10/22 07:34:29;;;;;;;9.68;3.58;;;;;;;;;;5096283;27;20055;-60
2022/10/22 07:36:56;;;;;;;14.40;3.72;;;;;;;;;;5086962;27;20063;-63
2022/10/22 07:39:24;;;;;;;14.85;4.15;;;;;;;;;;5098978;27;20135;-60
2022/10/22 07:41:51;;;;;;;10.45;3.35;;;;;;;;;;5102917;27;20059;-61
2022/10/22 07:44:17;;;;;;;10.48;3.47;;;;;;;;;;5101893;27;20227;-60
2022/10/22 07:46:43;;;;;;;10.80;3.33;;;;;;;;;;5100724;27;20052;-61
2022/10/22 07:49:14;;;;;;;14.80;3.60;;;;;;;;;;5098615;27;20051;-60
2022/10/22 07:51:40;;;;;;;10.57;4.70;;;;;;;;;;5101453;27;20056;-60
2022/10/22 07:54:06;;;;;;;9.95;3.42;;;;;;;;;;5101098;27;20056;-61
2022/10/22 07:56:33;;;;;;;9.15;2.78;;;;;;;;;;5101728;27;20394;-61
2022/10/22 07:58:59;;;;;;;11.65;4.07;;;;;;;;;;5099419;27;20691;-60
2022/10/22 08:01:30;;;;;;;9.63;3.05;;;;;;;;;;5098703;27;20048;-61
2022/10/22 08:03:56;;;;;;;11.02;3.47;;;;;;;;;;5096466;27;20049;-59
2022/10/22 08:06:23;;;;;;;12.93;3.53;;;;;;;;;;5101339;27;20484;-60
2022/10/22 08:08:50;;;;;;;7.45;2.97;;;;;;;;;;5100590;27;20048;-61
2022/10/22 08:11:16;;;;;;;13.68;3.25;;;;;;;;;;5096824;28;20056;-60
2022/10/22 08:13:43;;;;;;;19.70;3.00;;;;;;;;;;5089972;27;20528;-60
2022/10/22 08:16:11;;;;;;;7.55;2.85;;;;;;;;;;5101562;28;20048;-62
2022/10/22 08:18:38;;;;;;;9.45;2.67;;;;;;;;;;5102199;27;20054;-61
2022/10/22 08:21:04;;;;;;;11.88;3.90;;;;;;;;;;5101846;27;20059;-61
2022/10/22 08:23:31;;;;;;;10.98;3.08;;;;;;;;;;5106656;27;20093;-60
2022/10/22 08:25:58;;;;;;;12.85;2.92;;;;;;;;;;5107625;27;20056;-61
2022/10/22 08:28:24;;;;;;;7.28;2.25;;;;;;;;;;5111337;27;20044;-60
2022/10/22 08:30:51;;;;;;;8.10;2.10;;;;;;;;;;5106144;28;20054;-60
2022/10/22 08:33:18;;;;;;;8.55;3.10;;;;;;;;;;5102436;28;20048;-62
2022/10/22 08:35:48;;;;;;;12.27;4.00;;;;;;;;;;5106089;28;20127;-60
2022/10/22 08:38:14;;;;;;;8.75;2.85;;;;;;;;;;5104248;28;20131;-60
2022/10/22 08:40:41;;;;;;;9.80;3.78;;;;;;;;;;5105087;27;20068;-61
2022/10/22 08:43:10;;;;;;;7.38;2.72;;;;;;;;;;5103043;27;20496;-61
2022/10/22 08:45:58;;;;;;;6.40;2.35;;;;;;;;;;5105667;28;20134;-60
2022/10/22 08:48:43;;;;;;;12.20;3.15;;;;;;;;;;5105023;27;20059;-60
2022/10/22 08:51:11;;;;;;;13.23;3.78;;;;;;;;;;5104934;28;20067;-61
2022/10/22 08:53:38;;;;;;;11.15;2.83;;;;;;;;;;5102843;27;20113;-60
2022/10/22 08:56:04;;;;;;;10.88;2.60;;;;;;;;;;5117951;27;20052;-60
2022/10/22 08:58:36;;;;;;;7.75;2.40;;;;;;;;;;5102586;27;20052;-61
2022/10/22 09:01:13;;;;;;;8.60;3.03;;;;;;;;;;5107738;27;20056;-61
2022/10/22 09:03:48;;;;;;;4.53;2.60;;;;;;;;;;5104582;27;20498;-60
2022/10/22 09:06:17;;;;;;;9.35;2.75;;;;;;;;;;5084750;28;20052;-61
2022/10/22 09:08:44;;;;;;;7.68;2.13;;;;;;;;;;5099726;28;20051;-60
2022/10/22 09:11:11;;;;;;;8.68;2.83;;;;;;;;;;5104917;27;20044;-60
2022/10/22 09:13:39;;;;;;;5.20;2.05;;;;;;;;;;5104088;28;20052;-61
2022/10/22 09:16:19;;;;;;;12.20;2.97;;;;;;;;;;5104527;28;20139;-60
2022/10/22 09:18:50;;;;;;;10.20;2.72;;;;;;;;;;5103969;28;20048;-60
2022/10/22 09:21:23;;;;;;;10.15;3.30;;;;;;;;;;5103522;28;20650;-61
2022/10/22 09:23:56;;;;;;;8.38;2.65;;;;;;;;;;5104873;27;20044;-60
2022/10/22 09:26:24;;;;;;;13.25;3.88;;;;;;;;;;5084450;28;20368;-59
2022/10/22 09:28:50;;;;;;;10.25;3.00;;;;;;;;;;5096682;27;20417;-62
2022/10/22 09:31:17;;;;;;;8.82;2.40;;;;;;;;;;5106446;27;20689;-60
2022/10/22 09:33:45;;;;;;;9.13;2.83;;;;;;;;;;5105808;27;20064;-61
2022/10/22 09:36:15;;;;;;;11.30;2.63;;;;;;;;;;5119829;27;20051;-60
2022/10/22 09:38:49;;;;;;;9.48;2.88;;;;;;;;;;5120069;27;20299;-60
2022/10/22 09:41:16;;;;;;;7.85;2.55;;;;;;;;;;5113136;27;20056;-60
2022/10/22 09:43:45;;;;;;;7.95;2.45;;;;;;;;;;5105216;27;20050;-60
2022/10/22 09:46:16;;;;;;;8.77;2.55;;;;;;;;;;5104287;27;20059;-60
2022/10/22 09:48:46;;;;;;;6.70;2.83;;;;;;;;;;5103269;27;20055;-60
2022/10/22 09:51:22;;;;;;;8.90;2.47;;;;;;;;;;5104657;28;20052;-61
2022/10/22 09:53:56;;;;;;;9.93;2.70;;;;;;;;;;5103876;27;20239;-61
2022/10/22 09:56:24;;;;;;;7.63;2.67;;;;;;;;;;5104172;27;20044;-61
2022/10/22 09:58:51;;;;;;;8.70;3.67;;;;;;;;;;5103310;27;20056;-61
2022/10/22 10:01:25;;;;;;;8.73;2.67;;;;;;;;;;5104324;28;20051;-61
2022/10/22 10:03:51;;;;;;;9.57;2.40;;;;;;;;;;5102123;28;20048;-62
2022/10/22 10:06:19;;;;;;;10.75;2.80;;;;;;;;;;5101129;27;20650;-62
2022/10/22 10:08:46;;;;;;;10.88;3.30;;;;;;;;;;5105998;27;20054;-61
2022/10/22 10:11:15;;;;;;;7.10;1.95;;;;;;;;;;5102908;27;20148;-61
2022/10/22 10:13:51;;;;;;;4.78;2.28;;;;;;;;;;5103880;28;20048;-60
2022/10/22 10:16:29;;;;;;;10.27;2.17;;;;;;;;;;5103351;27;20048;-62
2022/10/22 10:19:05;;;;;;;7.50;1.80;;;;;;;;;;5103778;27;20126;-62
2022/10/22 10:21:51;;;;;;;12.20;2.40;;;;;;;;;;5113374;27;20078;-62
2022/10/22 10:24:40;;;;;;;18.23;3.15;;;;;;;;;;5118117;27;20044;-60
2022/10/22 10:27:25;;;;;;;13.07;2.50;;;;;;;;;;5121897;27;20055;-61
2022/10/22 10:30:01;;;;;;;10.55;2.65;;;;;;;;;;5115868;27;20052;-61
2022/10/22 10:32:35;;;;;;;9.60;2.30;;;;;;;;;;5123877;27;20885;-62
2022/10/22 10:35:01;;;;;;;5.32;1.77;;;;;;;;;;5103113;27;20055;-62
2022/10/22 10:37:31;;;;;;;9.32;3.13;;;;;;;;;;5113158;27;20468;-62
2022/10/22 10:40:00;;;;;;;8.15;2.42;;;;;;;;;;5123739;27;20398;-62
2022/10/22 10:42:35;;;;;;;11.75;2.60;;;;;;;;;;5124126;27;20584;-62
2022/10/22 10:45:07;;;;;;;9.80;2.63;;;;;;;;;;5120568;27;20097;-61
2022/10/22 10:47:49;;;;;;;4.30;1.80;;;;;;;;;;5122977;27;20058;-61
2022/10/22 10:50:32;;;;;;;8.10;1.50;;;;;;;;;;5107722;27;20578;-62
2022/10/22 10:53:02;;;;;;;9.02;2.13;;;;;;;;;;5112123;27;20039;-61
2022/10/22 10:55:34;;;;;;;9.90;2.50;;;;;;;;;;5122474;27;20590;-61
2022/10/22 10:58:19;;;;;;;5.97;2.05;;;;;;;;;;5123495;27;20502;-61
2022/10/22 11:01:04;;;;;;;8.93;2.20;;;;;;;;;;5122027;27;20157;-61
2022/10/22 11:03:30;;;;;;;8.40;2.30;;;;;;;;;;5115660;27;20052;-61
2022/10/22 11:05:57;;;;;;;10.80;2.63;;;;;;;;;;5111756;27;20051;-60
2022/10/22 11:08:26;;;;;;;8.80;1.92;;;;;;;;;;5110683;27;20060;-61
2022/10/22 11:11:02;;;;;;;8.13;2.45;;;;;;;;;;5108549;27;20514;-62
2022/10/22 11:13:28;;;;;;;11.77;2.53;;;;;;;;;;5102095;28;20508;-62
2022/10/22 11:16:00;;;;;;;4.40;2.22;;;;;;;;;;5102337;27;20052;-61
2022/10/22 11:18:38;;;;;;;5.57;2.00;;;;;;;;;;5100897;28;20044;-61
2022/10/22 11:21:07;;;;;;;5.63;1.92;;;;;;;;;;5101467;27;20462;-61
2022/10/22 11:23:43;;;;;;;6.53;1.85;;;;;;;;;;5115398;27;20465;-61
2022/10/22 11:26:13;;;;;;;8.13;3.47;;;;;;;;;;5091720;28;20059;-63
2022/10/22 11:28:46;;;;;;;11.20;2.35;;;;;;;;;;5100026;28;20563;-62
2022/10/22 11:31:14;;;;;;;11.38;2.03;;;;;;;;;;5102979;27;20048;-61
2022/10/22 11:33:46;;;;;;;9.05;2.22;;;;;;;;;;5105538;27;20197;-62
2022/10/22 11:36:13;;;;;;;9.38;2.30;;;;;;;;;;5082278;28;20060;-62
2022/10/22 11:38:39;;;;;;;10.05;1.80;;;;;;;;;;5082415;28;20108;-61
2022/10/22 11:41:10;;;;;;;9.00;1.60;;;;;;;;;;5082039;28;20052;-63
2022/10/22 11:43:55;;;;;;;7.35;1.65;;;;;;;;;;5082223;28;20102;-61
2022/10/22 11:46:21;;;;;;;9.25;2.20;;;;;;;;;;5088049;27;20531;-63
2022/10/22 11:49:01;;;;;;;8.18;1.70;;;;;;;;;;5097771;27;20052;-60
2022/10/22 11:51:37;;;;;;;10.25;1.95;;;;;;;;;;5096146;27;20280;-62
2022/10/22 11:54:22;;;;;;;8.32;1.60;;;;;;;;;;5120876;27;20047;-61
2022/10/22 11:56:51;;;;;;;10.32;2.42;;;;;;;;;;5092056;27;20117;-63
2022/10/22 11:59:36;;;;;;;8.88;2.17;;;;;;;;;;5117533;27;20071;-61
2022/10/22 12:02:21;;;;;;;10.93;2.08;;;;;;;;;;5120783;27;20048;-62
2022/10/22 12:04:47;;;;;;;16.50;2.57;;;;;;;;;;5123283;27;20056;-61
2022/10/22 12:07:26;;;;;;;6.07;1.70;;;;;;;;;;5122408;27;20258;-63
2022/10/22 12:09:53;;;;;;;9.18;2.10;;;;;;;;;;5119960;27;20079;-63
2022/10/22 12:12:19;;;;;;;9.43;1.83;;;;;;;;;;5099838;27;20048;-62
2022/10/22 12:15:12;;;;;;;14.20;2.28;;;;;;;;;;5093910;27;20060;-62
2022/10/22 12:17:41;;;;;;;9.43;1.80;;;;;;;;;;5077891;27;20048;-63
2022/10/22 12:20:11;;;;;;;6.72;2.05;;;;;;;;;;5082922;27;20524;-62
2022/10/22 12:22:37;;;;;;;9.88;2.00;;;;;;;;;;5101246;28;20047;-63
2022/10/22 12:25:20;;;;;;;11.27;2.25;;;;;;;;;;5104831;27;20052;-63
2022/10/22 12:27:52;;;;;;;9.88;1.98;;;;;;;;;;5102161;27;20441;-62
2022/10/22 12:30:23;;;;;;;11.38;2.03;;;;;;;;;;5102017;28;20052;-61
2022/10/22 12:32:55;;;;;;;7.55;1.90;;;;;;;;;;5098453;28;20048;-62
2022/10/22 12:35:23;;;;;;;6.90;2.30;;;;;;;;;;5099215;28;20044;-62
2022/10/22 12:37:50;;;;;;;10.88;1.85;;;;;;;;;;5081957;28;20056;-62
2022/10/22 12:40:20;;;;;;;7.97;2.35;;;;;;;;;;5080720;28;20555;-62
2022/10/22 12:42:51;;;;;;;8.18;1.77;;;;;;;;;;5085865;27;20063;-62
2022/10/22 12:45:18;;;;;;;9.60;2.28;;;;;;;;;;5102565;27;20063;-61
2022/10/22 12:47:45;;;;;;;10.88;3.22;;;;;;;;;;5100068;27;20048;-61
2022/10/22 12:50:19;;;;;;;9.75;2.03;;;;;;;;;;5100646;27;20052;-61
2022/10/22 12:52:46;;;;;;;9.45;1.70;;;;;;;;;;5085660;27;20049;-62
2022/10/22 12:55:20;;;;;;;8.90;2.42;;;;;;;;;;5081539;28;20048;-61
2022/10/22 12:57:47;;;;;;;11.87;2.87;;;;;;;;;;5082028;28;20064;-60
2022/10/22 13:00:21;;;;;;;7.95;1.70;;;;;;;;;;5081334;28;20191;-61
2022/10/22 13:02:47;;;;;;;8.85;2.25;;;;;;;;;;5099381;28;20063;-61
2022/10/22 13:05:29;;;;;;;10.70;2.80;;;;;;;;;;5100928;28;20056;-61
2022/10/22 13:08:03;;;;;;;8.23;2.15;;;;;;;;;;5102482;28;20630;-63
2022/10/22 13:10:31;;;;;;;10.38;2.17;;;;;;;;;;5081025;28;20048;-61
2022/10/22 13:12:57;;;;;;;10.73;1.98;;;;;;;;;;5099552;27;20056;-63
2022/10/22 13:15:27;;;;;;;9.57;1.98;;;;;;;;;;5103914;28;20044;-63
2022/10/22 13:18:21;;;;;;;8.25;1.85;;;;;;;;;;5105269;27;20655;-61
2022/10/22 13:20:51;;;;;;;11.55;2.70;;;;;;;;;;5104025;28;20605;-61
2022/10/22 13:23:18;;;;;;;7.28;1.50;;;;;;;;;;5102228;27;20311;-61
2022/10/22 13:25:55;;;;;;;6.40;1.88;;;;;;;;;;5104376;27;20155;-61
2022/10/22 13:28:23;;;;;;;11.07;1.98;;;;;;;;;;5103207;27;20052;-61
2022/10/22 13:30:57;;;;;;;7.95;1.90;;;;;;;;;;5105046;28;20052;-62
2022/10/22 13:33:40;;;;;;;9.93;3.13;;;;;;;;;;5083981;28;20055;-62
2022/10/22 13:36:08;;;;;;;9.00;2.30;;;;;;;;;;5096729;28;20048;-62
2022/10/22 13:38:35;;;;;;;7.05;2.13;;;;;;;;;;5099838;27;20086;-61
2022/10/22 13:41:03;;;;;;;7.90;1.80;;;;;;;;;;5104910;27;20114;-63
2022/10/22 13:43:29;;;;;;;8.68;2.15;;;;;;;;;;5104192;27;20052;-61
2022/10/22 13:45:57;;;;;;;9.07;2.15;;;;;;;;;;5104321;28;20509;-62
2022/10/22 13:48:25;;;;;;;10.40;2.80;;;;;;;;;;5104448;27;20590;-60
2022/10/22 13:50:51;;;;;;;7.72;2.17;;;;;;;;;;5103367;27;20048;-62
2022/10/22 13:53:20;;;;;;;9.15;2.30;;;;;;;;;;5104420;27;20541;-62
2022/10/22 13:55:49;;;;;;;5.85;1.92;;;;;;;;;;5104159;28;20055;-62
2022/10/22 13:58:17;;;;;;;11.07;2.63;;;;;;;;;;5104138;27;20048;-62
2022/10/22 14:00:49;;;;;;;9.95;2.13;;;;;;;;;;5105356;27;20055;-64
2022/10/22 14:03:18;;;;;;;10.95;2.50;;;;;;;;;;5103957;27;20040;-62
2022/10/22 14:05:45;;;;;;;12.30;2.60;;;;;;;;;;5104953;27;20051;-64
2022/10/22 14:08:12;;;;;;;10.82;2.13;;;;;;;;;;5100091;27;20059;-66
2022/10/22 14:10:38;;;;;;;7.60;2.83;;;;;;;;;;5103954;28;20531;-63
2022/10/22 14:13:05;;;;;;;10.77;3.08;;;;;;;;;;5103411;27;20064;-63
2022/10/22 14:15:32;;;;;;;15.70;3.25;;;;;;;;;;5104670;27;20052;-66
2022/10/22 14:17:59;;;;;;;15.38;2.88;;;;;;;;;;5104567;27;20059;-63
2022/10/22 14:20:27;;;;;;;12.35;2.88;;;;;;;;;;5104683;27;20048;-64
2022/10/22 14:22:54;;;;;;;10.52;2.90;;;;;;;;;;5125734;27;20058;-62
2022/10/22 14:25:23;;;;;;;16.42;2.92;;;;;;;;;;5124319;27;20055;-63
2022/10/22 14:27:49;;;;;;;9.00;2.60;;;;;;;;;;5125531;27;20101;-63
2022/10/22 14:30:20;;;;;;;10.80;2.88;;;;;;;;;;5123115;27;20551;-64
2022/10/22 14:32:47;;;;;;;11.82;3.72;;;;;;;;;;5103459;28;20052;-62
2022/10/22 14:35:15;;;;;;;10.80;3.15;;;;;;;;;;5105888;27;20060;-63
2022/10/22 14:37:42;;;;;;;14.73;3.03;;;;;;;;;;5124859;27;20053;-62
2022/10/22 14:40:11;;;;;;;15.82;3.30;;;;;;;;;;5102913;27;20055;-64
2022/10/22 14:42:39;;;;;;;10.88;3.25;;;;;;;;;;5104344;27;20052;-62
2022/10/22 14:45:09;;;;;;;12.75;2.90;;;;;;;;;;5103497;28;20150;-64
2022/10/22 14:47:35;;;;;;;11.13;2.63;;;;;;;;;;5103814;27;20052;-63